Natural Bridge Station, Virginia
Current Conditions -  °F | °C
As of 2:54 AM on Wednesday 26 Nov 2014 (Local Time) from KLYH Reporting Station
Light Rain Light Rain  
Wind Chill: 38°   Ceiling: 5000
Heat Index: 41°   Visibility: 8mi
Dew Point: 39°   Wind: 5mph
Humidity: 93%   Direction: 30°NNE
Pressure: 30.05"   Gusts: NA
Location:  37.62°N, 79.51°W
Report Text: KLYH 260754Z AUTO 03004KT 8SM -RA OVC050 05/04 A3005 RMK AO2 SLP175 P0005 T00500039
Loading
Personal Weather Stations






























Interactive Weather Map New forecast layout! Learn more

10-Day Weather Forecast

Advertisements
Track Severe Weather on mobile